createdAt,value
2017-08-08T00:01:28.756Z,68.80
2017-08-08T00:03:56.183Z,68.80
2017-08-08T00:06:23.604Z,69.50
2017-08-08T00:08:51.031Z,69.10
2017-08-08T00:11:18.452Z,69.50
2017-08-08T00:13:45.887Z,69.50
2017-08-08T00:16:13.303Z,70.00
2017-08-08T00:18:40.724Z,69.90
2017-08-08T00:21:08.148Z,69.10
2017-08-08T00:23:35.575Z,68.90
2017-08-08T00:26:02.992Z,68.70
2017-08-08T00:28:30.421Z,69.00
2017-08-08T00:30:57.840Z,69.20
2017-08-08T00:33:25.267Z,69.20
2017-08-08T00:35:53.447Z,69.60
2017-08-08T00:38:21.639Z,69.60
2017-08-08T00:40:49.060Z,69.60
2017-08-08T00:43:16.492Z,69.50
2017-08-08T00:45:43.919Z,69.30
2017-08-08T00:48:11.340Z,71.10
2017-08-08T00:50:39.523Z,71.60
2017-08-08T00:53:07.716Z,71.60
2017-08-08T00:55:35.144Z,71.40
2017-08-08T00:58:02.571Z,70.30
2017-08-08T01:00:29.992Z,70.50
2017-08-08T01:02:57.423Z,71.10
2017-08-08T01:05:25.656Z,70.80
2017-08-08T01:07:53.075Z,70.60
2017-08-08T01:10:20.528Z,70.90
2017-08-08T01:12:47.943Z,70.50
2017-08-08T01:15:15.368Z,70.80
2017-08-08T01:17:42.788Z,70.20
2017-08-08T01:20:10.220Z,70.70
2017-08-08T01:22:37.664Z,70.30
2017-08-08T01:25:05.089Z,70.70
2017-08-08T01:27:32.519Z,70.80
2017-08-08T01:29:59.952Z,70.90
2017-08-08T01:32:27.384Z,70.40
2017-08-08T01:34:54.824Z,70.80
2017-08-08T01:37:22.248Z,70.30
2017-08-08T01:39:49.679Z,70.60
2017-08-08T01:42:17.863Z,70.10
2017-08-08T01:44:46.071Z,69.80
2017-08-08T01:47:13.496Z,69.80
2017-08-08T01:49:41.703Z,70.80
2017-08-08T01:52:09.124Z,70.80
2017-08-08T01:54:37.315Z,71.00
2017-08-08T01:57:04.740Z,71.00
2017-08-08T01:59:32.169Z,70.90
2017-08-08T02:01:59.597Z,70.30
2017-08-08T02:04:27.020Z,70.50
2017-08-08T02:06:55.226Z,71.20
2017-08-08T02:09:22.648Z,71.20
2017-08-08T02:11:50.089Z,71.20
2017-08-08T02:14:17.511Z,71.50
2017-08-08T02:16:44.946Z,71.60
2017-08-08T02:19:12.372Z,72.30
2017-08-08T02:21:39.808Z,71.50
2017-08-08T02:24:07.230Z,72.00
2017-08-08T02:26:34.656Z,71.90
2017-08-08T02:29:02.196Z,71.40
2017-08-08T02:31:29.639Z,71.90
2017-08-08T02:33:57.057Z,71.80
2017-08-08T02:36:24.484Z,72.10
2017-08-08T02:38:51.912Z,72.00
2017-08-08T02:41:19.341Z,72.00
2017-08-08T02:43:46.767Z,72.70
2017-08-08T02:46:14.196Z,72.70
2017-08-08T02:48:42.397Z,72.70
2017-08-08T02:51:09.832Z,72.60
2017-08-08T02:53:37.259Z,72.40
2017-08-08T02:56:04.734Z,73.70
2017-08-08T02:58:32.174Z,72.60
2017-08-08T03:00:59.605Z,73.10
2017-08-08T03:03:27.036Z,73.10
2017-08-08T03:05:54.468Z,72.90
2017-08-08T03:08:22.737Z,73.30
2017-08-08T03:10:50.165Z,73.30
2017-08-08T03:13:17.597Z,73.70
2017-08-08T03:15:45.020Z,73.60
2017-08-08T03:18:13.211Z,73.30
2017-08-08T03:20:40.640Z,73.30
2017-08-08T03:23:08.846Z,72.80
2017-08-08T03:25:43.820Z,72.70
2017-08-08T03:28:12.327Z,73.40
2017-08-08T03:30:39.754Z,72.70
2017-08-08T03:33:07.208Z,71.60
2017-08-08T03:35:34.696Z,72.60
2017-08-08T03:38:02.129Z,73.00
2017-08-08T03:40:29.552Z,73.50
2017-08-08T03:42:56.989Z,72.10
2017-08-08T03:45:24.412Z,72.10
2017-08-08T03:47:51.852Z,72.30
2017-08-08T03:50:19.268Z,72.50
2017-08-08T03:52:46.720Z,72.10
2017-08-08T03:55:14.155Z,72.50
2017-08-08T03:57:41.582Z,72.20
2017-08-08T04:00:09.015Z,73.10
2017-08-08T04:02:36.441Z,72.20
2017-08-08T04:05:03.860Z,73.30
2017-08-08T04:07:31.309Z,73.00
2017-08-08T04:09:58.716Z,72.10
2017-08-08T04:12:26.140Z,71.90
2017-08-08T04:14:53.568Z,71.90
2017-08-08T04:17:20.991Z,71.60
2017-08-08T04:19:48.416Z,71.60
2017-08-08T04:22:16.613Z,72.30
2017-08-08T04:24:44.053Z,71.60
2017-08-08T04:27:12.246Z,72.40
2017-08-08T04:29:39.673Z,72.30
2017-08-08T04:32:07.096Z,72.90
2017-08-08T04:34:35.514Z,72.20
2017-08-08T04:37:03.712Z,71.80
2017-08-08T04:39:31.140Z,71.70
2017-08-08T04:41:59.332Z,71.80
2017-08-08T04:44:27.543Z,71.30
2017-08-08T04:46:54.960Z,71.20
2017-08-08T04:49:23.156Z,71.60
2017-08-08T04:51:50.580Z,71.60
2017-08-08T04:54:18.792Z,71.40
2017-08-08T04:56:46.217Z,71.40
2017-08-08T04:59:14.420Z,71.50
2017-08-08T05:01:41.849Z,71.60
2017-08-08T05:04:10.044Z,71.30
2017-08-08T05:06:37.467Z,71.30
2017-08-08T05:09:05.123Z,71.30
2017-08-08T05:11:32.539Z,71.30
2017-08-08T05:13:59.963Z,71.80
2017-08-08T05:16:27.385Z,71.70
2017-08-08T05:18:54.817Z,72.20
2017-08-08T05:21:23.532Z,72.50
2017-08-08T05:23:50.957Z,71.80
2017-08-08T05:26:18.389Z,71.20
2017-08-08T05:28:45.812Z,70.50
2017-08-08T05:31:13.242Z,70.20
2017-08-08T05:33:40.672Z,71.40
2017-08-08T05:36:08.100Z,71.30
2017-08-08T05:38:35.529Z,69.70
2017-08-08T05:41:02.965Z,69.40
2017-08-08T05:43:30.393Z,69.70
2017-08-08T05:45:57.821Z,70.10
2017-08-08T05:48:26.059Z,69.80
2017-08-08T05:50:53.512Z,69.70
2017-08-08T05:53:21.913Z,70.30
2017-08-08T05:55:49.351Z,69.50
2017-08-08T05:58:17.479Z,69.50
2017-08-08T06:00:44.904Z,70.30
2017-08-08T06:03:13.091Z,69.30
2017-08-08T06:05:40.530Z,69.20
2017-08-08T06:08:07.948Z,69.70
2017-08-08T06:10:35.400Z,69.20
2017-08-08T06:13:02.821Z,69.80
2017-08-08T06:15:31.008Z,68.80
2017-08-08T06:17:58.440Z,68.80
2017-08-08T06:20:26.632Z,68.50
2017-08-08T06:22:54.067Z,68.50
2017-08-08T06:25:21.489Z,68.00
2017-08-08T06:27:48.933Z,68.20
2017-08-08T06:30:17.361Z,68.70
2017-08-08T06:32:44.790Z,68.00
2017-08-08T06:35:12.221Z,68.30
2017-08-08T06:37:39.665Z,68.40
2017-08-08T06:40:07.084Z,68.00
2017-08-08T06:42:35.315Z,67.20
2017-08-08T06:45:02.740Z,67.30
2017-08-08T06:47:30.169Z,67.40
2017-08-08T06:49:57.592Z,66.90
2017-08-08T06:52:25.029Z,67.20
2017-08-08T06:54:52.451Z,67.20
2017-08-08T06:57:20.648Z,67.80
2017-08-08T06:59:48.092Z,67.80
2017-08-08T07:02:15.531Z,68.00
2017-08-08T07:04:42.956Z,67.60
2017-08-08T07:07:10.395Z,68.10
2017-08-08T07:09:37.821Z,68.20
2017-08-08T07:12:05.245Z,68.80
2017-08-08T07:14:32.672Z,68.60
2017-08-08T07:17:00.104Z,68.30
2017-08-08T07:19:27.528Z,68.70
2017-08-08T07:21:55.721Z,68.30
2017-08-08T07:24:23.167Z,68.30
2017-08-08T07:26:50.592Z,67.90
2017-08-08T07:29:18.031Z,67.80
2017-08-08T07:31:45.460Z,68.50
2017-08-08T07:34:12.893Z,67.30
2017-08-08T07:36:41.085Z,67.40
2017-08-08T07:39:08.517Z,67.40
2017-08-08T07:41:35.944Z,67.10
2017-08-08T07:44:03.377Z,67.70
2017-08-08T07:46:30.808Z,68.90
2017-08-08T07:48:58.237Z,68.10
2017-08-08T07:51:25.664Z,66.40
2017-08-08T07:53:53.102Z,66.80
2017-08-08T07:56:20.528Z,66.40
2017-08-08T07:58:47.960Z,67.00
2017-08-08T08:01:15.392Z,67.40
2017-08-08T08:03:42.816Z,65.70
2017-08-08T08:06:10.245Z,68.10
2017-08-08T08:08:37.671Z,65.50
2017-08-08T08:11:05.101Z,64.70
2017-08-08T08:13:32.532Z,64.10
2017-08-08T08:15:59.955Z,63.20
2017-08-08T08:18:27.381Z,65.10
2017-08-08T08:20:54.823Z,65.00
2017-08-08T08:23:22.244Z,63.40
2017-08-08T08:25:50.445Z,64.60
2017-08-08T08:28:21.540Z,64.50
2017-08-08T08:30:48.979Z,63.90
2017-08-08T08:33:16.400Z,65.00
2017-08-08T08:35:43.837Z,61.40
2017-08-08T08:38:11.261Z,63.80
2017-08-08T08:40:38.697Z,65.20
2017-08-08T08:43:06.135Z,65.60
2017-08-08T08:45:33.564Z,65.80
2017-08-08T08:48:00.988Z,65.50
2017-08-08T08:50:28.421Z,65.10
2017-08-08T08:52:55.840Z,64.20
2017-08-08T08:55:23.268Z,65.00
2017-08-08T08:57:51.460Z,63.10
2017-08-08T09:00:18.892Z,63.00
2017-08-08T09:02:46.317Z,64.30
2017-08-08T09:05:13.757Z,65.20
2017-08-08T09:07:41.193Z,64.80
2017-08-08T09:10:08.649Z,65.10
2017-08-08T09:12:36.080Z,64.90
2017-08-08T09:15:03.501Z,65.60
2017-08-08T09:17:30.943Z,64.70
2017-08-08T09:19:58.373Z,64.50
2017-08-08T09:22:25.804Z,66.10
2017-08-08T09:24:54.001Z,67.40
2017-08-08T09:27:21.441Z,66.50
2017-08-08T09:29:49.647Z,67.20
2017-08-08T09:32:17.064Z,66.90
2017-08-08T09:34:44.500Z,68.00
2017-08-08T09:37:11.932Z,68.30
2017-08-08T09:39:39.360Z,67.70
2017-08-08T09:42:06.797Z,64.40
2017-08-08T09:44:34.988Z,64.50
2017-08-08T09:47:02.437Z,64.40
2017-08-08T09:49:29.863Z,63.30
2017-08-08T09:51:57.292Z,62.50
2017-08-08T09:54:24.725Z,63.00
2017-08-08T09:56:52.161Z,63.40
2017-08-08T09:59:20.356Z,65.70
2017-08-08T10:01:47.789Z,65.60
2017-08-08T10:04:19.432Z,65.10
2017-08-08T10:06:46.873Z,65.00
2017-08-08T10:09:14.296Z,64.50
2017-08-08T10:11:41.736Z,65.50
2017-08-08T10:14:09.262Z,66.60
2017-08-08T10:16:36.700Z,68.70
2017-08-08T10:19:04.144Z,68.30
2017-08-08T10:21:31.580Z,69.20
2017-08-08T10:23:59.013Z,71.00
2017-08-08T10:26:26.437Z,71.10
2017-08-08T10:28:53.868Z,69.40
2017-08-08T10:31:21.295Z,70.30
2017-08-08T10:33:48.729Z,73.30
2017-08-08T10:36:16.168Z,74.20
2017-08-08T10:38:43.606Z,70.60
2017-08-08T10:41:11.036Z,70.70
2017-08-08T10:43:38.468Z,69.40
2017-08-08T10:46:05.898Z,70.80
2017-08-08T10:48:33.326Z,68.10
2017-08-08T10:51:00.753Z,66.70
2017-08-08T10:53:28.273Z,68.30
2017-08-08T10:55:56.474Z,67.20
2017-08-08T10:58:23.912Z,67.00
2017-08-08T11:00:51.336Z,67.80
2017-08-08T11:03:18.772Z,67.20
2017-08-08T11:05:46.205Z,70.20
2017-08-08T11:08:13.641Z,66.10
2017-08-08T11:10:41.181Z,66.80
2017-08-08T11:13:08.612Z,66.90
2017-08-08T11:15:36.041Z,70.40
2017-08-08T11:18:03.502Z,67.60
2017-08-08T11:20:31.013Z,69.70
2017-08-08T11:22:58.437Z,69.60
2017-08-08T11:25:25.874Z,66.30
2017-08-08T11:27:53.300Z,68.10
2017-08-08T11:30:20.733Z,66.30
2017-08-08T11:32:48.156Z,66.60
2017-08-08T11:35:15.592Z,68.20
2017-08-08T11:37:43.016Z,68.00
2017-08-08T11:40:10.445Z,68.90
2017-08-08T11:42:37.873Z,68.10
2017-08-08T11:45:05.312Z,69.80
2017-08-08T11:47:32.849Z,69.90
2017-08-08T11:50:01.064Z,68.90
2017-08-08T11:52:28.494Z,68.80
2017-08-08T11:54:57.364Z,69.60
2017-08-08T11:57:25.565Z,70.80
2017-08-08T11:59:54.016Z,69.90
2017-08-08T12:02:22.223Z,69.70
2017-08-08T12:04:49.652Z,69.70
2017-08-08T12:07:17.907Z,70.70
2017-08-08T12:09:45.345Z,70.60
2017-08-08T12:12:13.416Z,70.40
2017-08-08T12:14:40.842Z,70.70
2017-08-08T12:17:08.273Z,71.60
2017-08-08T12:19:36.473Z,72.40
2017-08-08T12:22:03.895Z,72.30
2017-08-08T12:24:32.096Z,72.10
2017-08-08T12:26:59.520Z,72.20
2017-08-08T12:29:26.962Z,70.30
2017-08-08T12:31:54.437Z,71.60
2017-08-08T12:34:22.643Z,69.40
2017-08-08T12:36:50.075Z,69.50
2017-08-08T12:39:18.268Z,70.50
2017-08-08T12:41:45.701Z,70.50
2017-08-08T12:44:13.122Z,69.40
2017-08-08T12:46:40.565Z,69.40
2017-08-08T12:49:07.991Z,69.40
2017-08-08T12:51:35.442Z,69.00
2017-08-08T12:54:03.705Z,68.40
2017-08-08T12:56:31.904Z,68.90
2017-08-08T12:58:59.328Z,68.80
2017-08-08T13:01:26.764Z,66.60
2017-08-08T13:03:54.195Z,65.70
2017-08-08T13:06:21.633Z,67.10
2017-08-08T13:08:49.072Z,65.40
2017-08-08T13:11:17.269Z,64.60
2017-08-08T13:13:44.707Z,64.50
2017-08-08T13:16:12.905Z,63.90
2017-08-08T13:18:40.333Z,63.90
2017-08-08T13:21:07.765Z,65.00
2017-08-08T13:23:35.200Z,64.20
2017-08-08T13:26:02.696Z,64.00
2017-08-08T13:28:30.889Z,63.80
2017-08-08T13:30:58.317Z,63.80
2017-08-08T13:33:26.800Z,64.70
2017-08-08T13:35:54.248Z,64.20
2017-08-08T13:38:21.673Z,65.20
2017-08-08T13:40:49.182Z,64.60
2017-08-08T13:43:16.610Z,63.30
2017-08-08T13:45:44.038Z,64.40
2017-08-08T13:48:11.477Z,64.80
2017-08-08T13:50:38.932Z,63.20
2017-08-08T13:53:06.354Z,64.40
2017-08-08T13:55:33.780Z,64.10
2017-08-08T13:58:01.280Z,64.40
2017-08-08T14:00:28.714Z,65.30
2017-08-08T14:02:56.158Z,64.70
2017-08-08T14:05:24.649Z,66.40
2017-08-08T14:07:52.601Z,65.50
2017-08-08T14:10:20.088Z,65.80
2017-08-08T14:12:47.525Z,65.80
2017-08-08T14:15:14.956Z,66.30
2017-08-08T14:17:42.397Z,66.10
2017-08-08T14:20:09.816Z,64.70
2017-08-08T14:22:38.016Z,64.00
2017-08-08T14:25:05.449Z,63.90
2017-08-08T14:27:33.640Z,67.70
2017-08-08T14:30:01.064Z,67.70
2017-08-08T14:32:29.569Z,69.10
2017-08-08T14:34:57.004Z,68.40
2017-08-08T14:37:24.466Z,69.10
2017-08-08T14:39:56.732Z,68.60
2017-08-08T14:42:29.678Z,67.40
2017-08-08T14:44:57.125Z,67.00
2017-08-08T14:47:24.553Z,66.90
2017-08-08T14:49:52.735Z,69.20
2017-08-08T14:52:21.196Z,69.10
2017-08-08T14:54:49.405Z,63.80
2017-08-08T14:57:16.823Z,63.50
2017-08-08T14:59:44.257Z,61.10
2017-08-08T15:02:11.678Z,62.30
2017-08-08T15:04:39.108Z,62.60
2017-08-08T15:07:07.306Z,65.60
2017-08-08T15:09:34.727Z,65.50
2017-08-08T15:12:02.921Z,63.30
2017-08-08T15:14:31.144Z,63.80
2017-08-08T15:16:58.565Z,63.70
2017-08-08T15:19:25.996Z,62.30
2017-08-08T15:21:53.425Z,62.50
2017-08-08T15:24:20.957Z,61.10
2017-08-08T15:26:48.378Z,61.90
2017-08-08T15:29:15.816Z,64.50
2017-08-08T15:31:43.245Z,63.60
2017-08-08T15:34:10.672Z,61.20
2017-08-08T15:36:38.100Z,61.30
2017-08-08T15:39:05.521Z,61.60
2017-08-08T15:41:32.957Z,61.00
2017-08-08T15:44:00.385Z,59.90
2017-08-08T15:46:27.816Z,60.20
2017-08-08T15:48:55.244Z,60.00
2017-08-08T15:51:22.700Z,59.80
2017-08-08T15:53:51.104Z,59.70
2017-08-08T15:56:18.560Z,59.40
2017-08-08T15:58:46.017Z,57.10
2017-08-08T16:01:13.480Z,57.70
2017-08-08T16:03:42.709Z,56.50
2017-08-08T16:06:11.389Z,56.40
2017-08-08T16:08:38.807Z,55.40
2017-08-08T16:11:06.239Z,55.30
2017-08-08T16:13:33.669Z,55.10
2017-08-08T16:16:01.097Z,55.00
2017-08-08T16:18:28.522Z,54.80
2017-08-08T16:20:55.984Z,54.90
2017-08-08T16:23:23.477Z,55.40
2017-08-08T16:25:51.686Z,55.70
2017-08-08T16:28:19.118Z,55.60
2017-08-08T16:30:46.544Z,55.80
2017-08-08T16:33:14.752Z,56.50
2017-08-08T16:35:42.180Z,56.40
2017-08-08T16:38:10.425Z,54.70
2017-08-08T16:40:37.857Z,55.20
2017-08-08T16:43:05.284Z,55.10
2017-08-08T16:45:32.724Z,55.50
2017-08-08T16:48:00.919Z,55.90
2017-08-08T16:50:28.345Z,55.90
2017-08-08T16:52:55.772Z,55.60
2017-08-08T16:55:23.196Z,55.50
2017-08-08T16:57:54.112Z,55.60
2017-08-08T17:00:25.961Z,56.50
2017-08-08T17:02:53.395Z,56.60
2017-08-08T17:05:20.811Z,57.30
2017-08-08T17:07:48.257Z,56.90
2017-08-08T17:10:16.493Z,56.90
2017-08-08T17:12:45.916Z,57.60
2017-08-08T17:15:14.103Z,58.10
2017-08-08T17:17:41.541Z,58.00
2017-08-08T17:20:08.965Z,60.60
2017-08-08T17:22:36.416Z,59.00
2017-08-08T17:25:03.844Z,60.10
2017-08-08T17:27:31.271Z,58.50
2017-08-08T17:29:58.699Z,57.80
2017-08-08T17:32:26.131Z,58.70
2017-08-08T17:34:53.589Z,60.10
2017-08-08T17:37:21.016Z,60.50
2017-08-08T17:39:48.454Z,57.50
2017-08-08T17:42:16.654Z,59.00
2017-08-08T17:44:44.093Z,58.50
2017-08-08T17:47:11.519Z,56.80
2017-08-08T17:49:38.952Z,57.90
2017-08-08T17:52:06.380Z,57.50
2017-08-08T17:54:33.817Z,57.00
2017-08-08T17:57:02.008Z,58.50
2017-08-08T17:59:29.445Z,58.40
2017-08-08T18:01:57.635Z,57.80
2017-08-08T18:04:25.064Z,57.70
2017-08-08T18:06:52.484Z,57.80
2017-08-08T18:09:19.929Z,57.60
2017-08-08T18:11:47.360Z,57.90
2017-08-08T18:14:14.848Z,58.10
2017-08-08T18:16:42.272Z,57.90
2017-08-08T18:19:09.704Z,58.40
2017-08-08T18:21:37.132Z,58.40
2017-08-08T18:24:04.641Z,58.40
2017-08-08T18:26:32.184Z,58.70
2017-08-08T18:29:00.381Z,57.60
2017-08-08T18:31:27.820Z,57.50
2017-08-08T18:33:55.999Z,59.50
2017-08-08T18:36:23.432Z,59.10
2017-08-08T18:38:50.860Z,60.00
2017-08-08T18:41:18.296Z,58.80
2017-08-08T18:43:45.720Z,58.60
2017-08-08T18:46:13.151Z,59.80
2017-08-08T18:48:40.580Z,59.60
2017-08-08T18:51:08.013Z,61.10
2017-08-08T18:53:35.447Z,60.00
2017-08-08T18:56:02.879Z,59.70
2017-08-08T18:58:30.308Z,60.20
2017-08-08T19:00:57.740Z,59.90
2017-08-08T19:03:25.264Z,60.30
2017-08-08T19:05:52.698Z,60.20
2017-08-08T19:08:20.132Z,62.50
2017-08-08T19:10:47.560Z,62.10
2017-08-08T19:13:14.990Z,62.50
2017-08-08T19:15:42.424Z,62.60
2017-08-08T19:18:09.857Z,63.00
2017-08-08T19:20:37.363Z,62.40
2017-08-08T19:23:04.825Z,63.10
2017-08-08T19:25:33.065Z,63.90
2017-08-08T19:28:01.585Z,63.80
2017-08-08T19:30:29.777Z,64.90
2017-08-08T19:32:58.245Z,64.90
2017-08-08T19:35:26.428Z,64.30
2017-08-08T19:37:53.864Z,64.20
2017-08-08T19:40:22.048Z,65.00
2017-08-08T19:42:50.322Z,64.90
2017-08-08T19:45:18.521Z,65.20
2017-08-08T19:47:46.089Z,65.20
2017-08-08T19:50:13.516Z,65.40
2017-08-08T19:52:41.714Z,65.70
2017-08-08T19:55:09.256Z,65.70
2017-08-08T19:57:37.553Z,66.10
2017-08-08T20:00:05.996Z,66.10
2017-08-08T20:02:34.226Z,67.00
2017-08-08T20:05:01.657Z,66.90
2017-08-08T20:07:29.085Z,66.80
2017-08-08T20:09:57.357Z,67.20
2017-08-08T20:12:24.792Z,67.20
2017-08-08T20:14:52.220Z,66.90
2017-08-08T20:17:19.652Z,67.20
2017-08-08T20:19:47.081Z,67.20
2017-08-08T20:22:14.504Z,67.20
2017-08-08T20:24:41.949Z,68.20
2017-08-08T20:27:09.385Z,68.00
2017-08-08T20:29:36.813Z,67.70
2017-08-08T20:32:05.038Z,67.80
2017-08-08T20:34:32.469Z,67.70
2017-08-08T20:36:59.897Z,68.10
2017-08-08T20:39:27.332Z,68.50
2017-08-08T20:41:55.526Z,69.20
2017-08-08T20:44:22.965Z,69.30
2017-08-08T20:46:50.441Z,69.50
2017-08-08T20:49:17.905Z,70.00
2017-08-08T20:51:46.096Z,71.20
2017-08-08T20:54:13.529Z,71.10
2017-08-08T20:56:40.965Z,71.40
2017-08-08T20:59:08.405Z,71.60
2017-08-08T21:01:35.893Z,70.50
2017-08-08T21:04:03.361Z,70.00
2017-08-08T21:06:31.556Z,70.60
2017-08-08T21:08:58.992Z,70.60
2017-08-08T21:11:27.192Z,71.10
2017-08-08T21:13:54.632Z,71.00
2017-08-08T21:16:22.868Z,71.10
2017-08-08T21:18:50.305Z,71.10
2017-08-08T21:21:17.734Z,71.10
2017-08-08T21:23:45.164Z,71.50
2017-08-08T21:26:12.587Z,71.90
2017-08-08T21:28:40.030Z,71.50
2017-08-08T21:31:07.460Z,71.00
2017-08-08T21:33:34.911Z,71.10
2017-08-08T21:36:02.370Z,70.50
2017-08-08T21:38:30.552Z,70.60
2017-08-08T21:40:57.988Z,70.60
2017-08-08T21:43:26.185Z,71.70
2017-08-08T21:45:53.608Z,71.60
2017-08-08T21:48:21.031Z,72.40
2017-08-08T21:50:48.482Z,72.20
2017-08-08T21:53:15.897Z,72.70
2017-08-08T21:55:44.097Z,71.00
2017-08-08T21:58:11.516Z,71.00
2017-08-08T22:00:39.715Z,72.50
2017-08-08T22:03:07.140Z,71.60
2017-08-08T22:05:34.564Z,71.60
2017-08-08T22:08:01.988Z,71.90
2017-08-08T22:10:29.424Z,70.80
2017-08-08T22:12:57.616Z,72.00
2017-08-08T22:15:25.039Z,72.00
2017-08-08T22:17:53.227Z,72.20
2017-08-08T22:20:21.422Z,72.30
2017-08-08T22:22:48.844Z,72.20
2017-08-08T22:25:17.052Z,72.30
2017-08-08T22:27:44.484Z,71.50
2017-08-08T22:30:12.692Z,72.70
2017-08-08T22:32:40.114Z,72.10
2017-08-08T22:35:08.308Z,72.70
2017-08-08T22:37:35.743Z,72.70
2017-08-08T22:40:03.935Z,73.50
2017-08-08T22:42:31.361Z,73.50
2017-08-08T22:44:58.788Z,73.60
2017-08-08T22:47:26.229Z,73.70
2017-08-08T22:49:53.645Z,73.90
2017-08-08T22:52:21.845Z,75.80
2017-08-08T22:54:49.268Z,75.80
2017-08-08T22:57:16.700Z,76.30
2017-08-08T22:59:44.129Z,76.40
2017-08-08T23:02:11.561Z,76.80
2017-08-08T23:04:38.980Z,75.80
2017-08-08T23:07:06.424Z,76.20
2017-08-08T23:09:33.845Z,74.50
2017-08-08T23:12:01.276Z,74.10
2017-08-08T23:14:29.458Z,73.20
2017-08-08T23:16:56.900Z,73.20
2017-08-08T23:19:25.085Z,72.60
2017-08-08T23:21:53.285Z,72.40
2017-08-08T23:24:20.708Z,72.30
2017-08-08T23:26:48.153Z,71.60
2017-08-08T23:29:15.594Z,71.30
2017-08-08T23:31:43.016Z,71.00
2017-08-08T23:34:10.452Z,70.80
2017-08-08T23:36:37.882Z,71.20
2017-08-08T23:39:05.304Z,71.10
2017-08-08T23:41:32.724Z,71.30
2017-08-08T23:44:00.161Z,71.00
2017-08-08T23:46:27.592Z,71.30
2017-08-08T23:48:55.073Z,71.00
2017-08-08T23:51:23.265Z,71.40
2017-08-08T23:53:50.705Z,71.40
2017-08-08T23:56:18.116Z,71.20
2017-08-08T23:58:45.555Z,70.90
